Pedro Leopoldo, Brazil
Current Conditions -  °F | °C
As of 10:00 AM on Thursday 30 Oct 2014 (Local Time) from SBLS Reporting Station
Broken Clouds Broken Clouds  
Wind Chill: 68°   Ceiling: 2700
Heat Index: 68°   Visibility: 5mi
Dew Point: 64°   Wind: 3mph
Humidity: 88%   Direction: 190°S
Pressure: 30.06"   Gusts: NA
Location:  19.62°S, 44.04°W
Report Text: SBLS 301200Z 19003KT 8000 BKN027 BKN090 20/18 Q1018
Loading
Personal Weather Stations






























Interactive Weather Map
Tropical Storm Tracking
New forecast layout! Learn more

10-Day Weather Forecast

Advertisements
Track Severe Weather on mobile